PWSweather.com
Personal Weather Stations
Station Observations

PoschiavoCH

Lat: 46.31962499999999, Lon: 10.066551000000004

Elevation: 3517

Station Type: WH 1080

http://www.meteoposchiavo.com

High Low Average
Temperature 75.0°F23.9°C 51.0°F10.6°C 61.2°F16.2°C
Dew Point 59.4°F15.2°C 46.3°F7.9°C 53.8°F12.1°C
Winds 1.2 mph 1.9 kmh Calm Calm Calm SCalm S
Wind Gusts 1.2 mph1.9 kmh -- --
Humidity 95% 49% 78%
Pressure 26.65 in902.5 mb 26.57 in899.8 mb -
Precipitation 0.38 in9.7 mm - -
Hour Temp Dew Point Humidity Winds Wind Gusts Pressure Precip Precip Rate Daily Precip Total
12:00 AM 53.0°F11.7°C 50.1°F10.1°C 90% Calm Calm -- 26.61 in901.1 mb - 0.00 in0.0 mm 0.00 in0.0 mm
12:10 AM 53.0°F11.7°C 50.1°F10.1°C 90% Calm Calm -- 26.61 in901.1 mb - 0.00 in0.0 mm 0.00 in0.0 mm
12:15 AM 53.0°F11.7°C 49.5°F9.7°C 88% Calm Calm -- 26.60 in900.8 mb - 0.00 in0.0 mm 0.00 in0.0 mm
12:20 AM 53.0°F11.7°C 50.1°F10.1°C 90% Calm Calm -- 26.60 in900.8 mb - 0.00 in0.0 mm 0.00 in0.0 mm
12:25 AM 53.0°F11.7°C 49.8°F9.9°C 89% Calm Calm -- 26.60 in900.8 mb - 0.00 in0.0 mm 0.00 in0.0 mm
12:30 AM 53.0°F11.7°C 49.8°F9.9°C 89% Calm Calm -- 26.60 in900.8 mb - 0.00 in0.0 mm 0.00 in0.0 mm
12:35 AM 53.0°F11.7°C 49.2°F9.6°C 87% Calm Calm -- 26.60 in900.8 mb - 0.00 in0.0 mm 0.00 in0.0 mm
12:40 AM 53.0°F11.7°C 49.5°F9.7°C 88% Calm Calm -- 26.61 in901.1 mb - 0.00 in0.0 mm 0.00 in0.0 mm
12:45 AM 53.0°F11.7°C 49.8°F9.9°C 89% Calm Calm -- 26.61 in901.1 mb - 0.00 in0.0 mm 0.00 in0.0 mm
12:50 AM 53.0°F11.7°C 49.8°F9.9°C 89% Calm Calm -- 26.61 in901.1 mb - 0.00 in0.0 mm 0.00 in0.0 mm
12:55 AM 53.0°F11.7°C 50.1°F10.1°C 90% Calm Calm -- 26.61 in901.1 mb - 0.00 in0.0 mm 0.00 in0.0 mm
01:00 AM 53.0°F11.7°C 48.9°F9.4°C 86% Calm Calm -- 26.61 in901.1 mb - 0.00 in0.0 mm 0.00 in0.0 mm
01:10 AM 53.0°F11.7°C 49.8°F9.9°C 89% Calm Calm -- 26.61 in901.1 mb - 0.00 in0.0 mm 0.00 in0.0 mm
01:15 AM 56.0°F13.3°C 53.7°F12.1°C 92% Calm Calm -- 26.57 in899.8 mb - 0.16 in4.1 mm 0.16 in4.1 mm
01:20 AM 52.0°F11.1°C 49.2°F9.6°C 90% Calm Calm -- 26.60 in900.8 mb - 0.16 in4.1 mm 0.16 in4.1 mm
01:25 AM 53.0°F11.7°C 49.2°F9.6°C 87% Calm Calm -- 26.61 in901.1 mb - 0.16 in4.1 mm 0.16 in4.1 mm
01:30 AM 53.0°F11.7°C 49.8°F9.9°C 89% Calm Calm -- 26.61 in901.1 mb - 0.16 in4.1 mm 0.16 in4.1 mm
01:35 AM 53.0°F11.7°C 49.2°F9.6°C 87% Calm Calm -- 26.60 in900.8 mb - 0.16 in4.1 mm 0.16 in4.1 mm
01:40 AM 53.0°F11.7°C 49.2°F9.6°C 87% Calm Calm -- 26.60 in900.8 mb - 0.16 in4.1 mm 0.16 in4.1 mm
01:45 AM 53.0°F11.7°C 49.8°F9.9°C 89% Calm Calm -- 26.61 in901.1 mb - 0.16 in4.1 mm 0.16 in4.1 mm
01:50 AM 53.0°F11.7°C 50.1°F10.1°C 90% Calm Calm -- 26.61 in901.1 mb - 0.16 in4.1 mm 0.16 in4.1 mm
01:55 AM 52.0°F11.1°C 49.2°F9.6°C 90% Calm Calm -- 26.61 in901.1 mb - 0.16 in4.1 mm 0.16 in4.1 mm
02:00 AM 52.0°F11.1°C 48.6°F9.2°C 88% Calm Calm -- 26.61 in901.1 mb - 0.16 in4.1 mm 0.16 in4.1 mm
02:10 AM 52.0°F11.1°C 49.2°F9.6°C 90% Calm Calm -- 26.62 in901.5 mb - 0.16 in4.1 mm 0.16 in4.1 mm
02:15 AM 52.0°F11.1°C 48.9°F9.4°C 89% Calm Calm -- 26.62 in901.5 mb - 0.00 in0.0 mm 0.16 in4.1 mm
02:20 AM 52.0°F11.1°C 48.9°F9.4°C 89% Calm Calm -- 26.61 in901.1 mb - 0.00 in0.0 mm 0.16 in4.1 mm
02:25 AM 52.0°F11.1°C 49.2°F9.6°C 90% Calm Calm -- 26.62 in901.5 mb - 0.00 in0.0 mm 0.16 in4.1 mm
02:30 AM 52.0°F11.1°C 49.2°F9.6°C 90% Calm Calm -- 26.62 in901.5 mb - 0.00 in0.0 mm 0.16 in4.1 mm
02:35 AM 52.0°F11.1°C 49.5°F9.7°C 91% Calm Calm -- 26.61 in901.1 mb - 0.00 in0.0 mm 0.16 in4.1 mm
02:40 AM 52.0°F11.1°C 48.9°F9.4°C 89% Calm Calm -- 26.61 in901.1 mb - 0.00 in0.0 mm 0.16 in4.1 mm
02:45 AM 52.0°F11.1°C 48.9°F9.4°C 89% Calm Calm -- 26.62 in901.5 mb - 0.00 in0.0 mm 0.16 in4.1 mm
02:50 AM 52.0°F11.1°C 47.9°F8.8°C 86% Calm Calm -- 26.61 in901.1 mb - 0.00 in0.0 mm 0.16 in4.1 mm
02:55 AM 52.0°F11.1°C 49.2°F9.6°C 90% Calm Calm -- 26.62 in901.5 mb - 0.00 in0.0 mm 0.16 in4.1 mm
03:00 AM 52.0°F11.1°C 48.9°F9.4°C 89% Calm Calm -- 26.61 in901.1 mb - 0.00 in0.0 mm 0.16 in4.1 mm
03:10 AM 52.0°F11.1°C 48.6°F9.2°C 88% Calm Calm -- 26.62 in901.5 mb - 0.00 in0.0 mm 0.16 in4.1 mm
03:15 AM 51.7°F10.9°C 48.3°F9.1°C 88% Calm Calm -- 26.62 in901.5 mb - 0.00 in0.0 mm 0.16 in4.1 mm
03:20 AM 51.0°F10.6°C 47.9°F8.8°C 89% Calm Calm -- 26.62 in901.5 mb - 0.00 in0.0 mm 0.16 in4.1 mm
03:25 AM 51.0°F10.6°C 47.9°F8.8°C 89% Calm Calm -- 26.62 in901.5 mb - 0.00 in0.0 mm 0.16 in4.1 mm
03:30 AM 51.0°F10.6°C 48.2°F9.0°C 90% Calm Calm -- 26.62 in901.5 mb - 0.00 in0.0 mm 0.16 in4.1 mm
03:35 AM 51.0°F10.6°C 48.2°F9.0°C 90% Calm Calm -- 26.62 in901.5 mb - 0.00 in0.0 mm 0.16 in4.1 mm
03:40 AM 52.0°F11.1°C 48.3°F9.1°C 87% Calm Calm -- 26.62 in901.5 mb - 0.00 in0.0 mm 0.16 in4.1 mm
03:45 AM 53.0°F11.7°C 48.6°F9.2°C 85% Calm Calm -- 26.62 in901.5 mb - 0.00 in0.0 mm 0.16 in4.1 mm
03:50 AM 52.0°F11.1°C 47.6°F8.7°C 85% Calm Calm -- 26.62 in901.5 mb - 0.00 in0.0 mm 0.16 in4.1 mm
03:55 AM 53.0°F11.7°C 49.2°F9.6°C 87% Calm Calm -- 26.62 in901.5 mb - 0.00 in0.0 mm 0.16 in4.1 mm
04:00 AM 52.4°F11.3°C 49.0°F9.4°C 88% Calm Calm -- 26.62 in901.5 mb - 0.00 in0.0 mm 0.16 in4.1 mm
04:10 AM 52.0°F11.1°C 48.9°F9.4°C 89% Calm Calm -- 26.62 in901.5 mb - 0.00 in0.0 mm 0.16 in4.1 mm
04:15 AM 52.0°F11.1°C 48.6°F9.2°C 88% Calm Calm -- 26.62 in901.5 mb - 0.00 in0.0 mm 0.16 in4.1 mm
04:20 AM 52.0°F11.1°C 47.9°F8.8°C 86% Calm Calm -- 26.62 in901.5 mb - 0.00 in0.0 mm 0.16 in4.1 mm
04:25 AM 54.0°F12.2°C 51.1°F10.6°C 90% Calm Calm -- 26.61 in901.1 mb - 0.16 in4.1 mm 0.32 in8.1 mm
04:30 AM 52.0°F11.1°C 48.9°F9.4°C 89% Calm Calm -- 26.62 in901.5 mb - 0.16 in4.1 mm 0.32 in8.1 mm
04:35 AM 52.0°F11.1°C 48.6°F9.2°C 88% Calm Calm -- 26.62 in901.5 mb - 0.16 in4.1 mm 0.32 in8.1 mm
04:40 AM 52.0°F11.1°C 48.3°F9.1°C 87% Calm Calm -- 26.62 in901.5 mb - 0.16 in4.1 mm 0.32 in8.1 mm
04:45 AM 52.8°F11.6°C 49.1°F9.5°C 87% Calm Calm -- 26.62 in901.5 mb - 0.16 in4.1 mm 0.32 in8.1 mm
04:50 AM 53.0°F11.7°C 49.2°F9.6°C 87% Calm Calm -- 26.62 in901.5 mb - 0.16 in4.1 mm 0.32 in8.1 mm
04:55 AM 53.0°F11.7°C 49.5°F9.7°C 88% Calm Calm -- 26.62 in901.5 mb - 0.16 in4.1 mm 0.32 in8.1 mm
05:00 AM 53.0°F11.7°C 48.9°F9.4°C 86% Calm Calm -- 26.62 in901.5 mb - 0.16 in4.1 mm 0.32 in8.1 mm
05:10 AM 53.0°F11.7°C 49.2°F9.6°C 87% Calm Calm -- 26.62 in901.5 mb - 0.16 in4.1 mm 0.32 in8.1 mm
05:15 AM 53.0°F11.7°C 49.5°F9.7°C 88% Calm Calm -- 26.62 in901.5 mb - 0.16 in4.1 mm 0.32 in8.1 mm
05:20 AM 53.0°F11.7°C 48.6°F9.2°C 85% Calm Calm -- 26.62 in901.5 mb - 0.16 in4.1 mm 0.32 in8.1 mm
05:25 AM 53.0°F11.7°C 49.2°F9.6°C 87% Calm Calm -- 26.62 in901.5 mb - 0.00 in0.0 mm 0.32 in8.1 mm
05:30 AM 53.0°F11.7°C 50.1°F10.1°C 90% Calm Calm -- 26.62 in901.5 mb - 0.00 in0.0 mm 0.32 in8.1 mm
05:35 AM 53.0°F11.7°C 49.8°F9.9°C 89% Calm Calm -- 26.62 in901.5 mb - 0.00 in0.0 mm 0.32 in8.1 mm
05:40 AM 53.0°F11.7°C 49.5°F9.7°C 88% Calm Calm -- 26.62 in901.5 mb - 0.00 in0.0 mm 0.32 in8.1 mm
05:45 AM 53.0°F11.7°C 48.9°F9.4°C 86% Calm Calm -- 26.62 in901.5 mb - 0.00 in0.0 mm 0.32 in8.1 mm
05:50 AM 54.0°F12.2°C 50.5°F10.3°C 88% Calm Calm -- 26.61 in901.1 mb - 0.00 in0.0 mm 0.32 in8.1 mm
05:55 AM 54.0°F12.2°C 51.4°F10.8°C 91% Calm Calm -- 26.62 in901.5 mb - 0.00 in0.0 mm 0.32 in8.1 mm
06:00 AM 55.0°F12.8°C 50.9°F10.5°C 86% Calm Calm -- 26.62 in901.5 mb - 0.00 in0.0 mm 0.32 in8.1 mm
06:10 AM 55.0°F12.8°C 50.6°F10.3°C 85% Calm Calm -- 26.62 in901.5 mb - 0.00 in0.0 mm 0.32 in8.1 mm
06:15 AM 56.0°F13.3°C 51.6°F10.9°C 85% Calm Calm -- 26.62 in901.5 mb - 0.00 in0.0 mm 0.32 in8.1 mm
06:20 AM 56.0°F13.3°C 51.6°F10.9°C 85% Calm Calm -- 26.62 in901.5 mb - 0.00 in0.0 mm 0.32 in8.1 mm
06:25 AM 56.4°F13.6°C 52.2°F11.2°C 86% Calm Calm -- 26.62 in901.5 mb - 0.00 in0.0 mm 0.32 in8.1 mm
06:30 AM 57.0°F13.9°C 53.5°F11.9°C 88% Calm Calm -- 26.62 in901.5 mb - 0.00 in0.0 mm 0.32 in8.1 mm
06:35 AM 57.0°F13.9°C 51.6°F10.9°C 82% Calm Calm -- 26.62 in901.5 mb - 0.00 in0.0 mm 0.32 in8.1 mm
06:40 AM 57.0°F13.9°C 51.9°F11.1°C 83% Calm Calm -- 26.61 in901.1 mb - 0.00 in0.0 mm 0.32 in8.1 mm
06:45 AM 57.0°F13.9°C 52.5°F11.4°C 85% Calm Calm -- 26.62 in901.5 mb - 0.00 in0.0 mm 0.32 in8.1 mm
06:50 AM 57.0°F13.9°C 52.9°F11.6°C 86% Calm Calm -- 26.61 in901.1 mb - 0.00 in0.0 mm 0.32 in8.1 mm
06:55 AM 58.0°F14.4°C 54.5°F12.5°C 88% Calm Calm -- 26.62 in901.5 mb - 0.00 in0.0 mm 0.32 in8.1 mm
07:00 AM 58.0°F14.4°C 53.2°F11.8°C 84% Calm Calm -- 26.61 in901.1 mb - 0.00 in0.0 mm 0.32 in8.1 mm
07:10 AM 58.0°F14.4°C 53.2°F11.8°C 84% Calm Calm -- 26.62 in901.5 mb - 0.00 in0.0 mm 0.32 in8.1 mm
07:15 AM 58.1°F14.5°C 53.0°F11.7°C 83% Calm Calm -- 26.62 in901.5 mb - 0.00 in0.0 mm 0.32 in8.1 mm
07:20 AM 59.0°F15.0°C 53.5°F11.9°C 82% Calm Calm -- 26.61 in901.1 mb - 0.00 in0.0 mm 0.32 in8.1 mm
07:25 AM 59.0°F15.0°C 52.8°F11.6°C 80% Calm Calm -- 26.62 in901.5 mb - 0.00 in0.0 mm 0.32 in8.1 mm
07:30 AM 59.0°F15.0°C 53.8°F12.1°C 83% Calm Calm -- 26.62 in901.5 mb - 0.00 in0.0 mm 0.32 in8.1 mm
07:35 AM 60.0°F15.6°C 55.5°F13.1°C 85% Calm Calm -- 26.61 in901.1 mb - 0.00 in0.0 mm 0.32 in8.1 mm
07:40 AM 61.0°F16.1°C 55.1°F12.8°C 81% Calm Calm -- 26.62 in901.5 mb - 0.00 in0.0 mm 0.32 in8.1 mm
07:45 AM 62.0°F16.7°C 54.7°F12.6°C 77% Calm Calm -- 26.62 in901.5 mb - 0.00 in0.0 mm 0.32 in8.1 mm
07:50 AM 62.0°F16.7°C 55.1°F12.8°C 78% Calm Calm -- 26.62 in901.5 mb - 0.00 in0.0 mm 0.32 in8.1 mm
07:55 AM 62.0°F16.7°C 54.3°F12.4°C 76% Calm Calm -- 26.62 in901.5 mb - 0.00 in0.0 mm 0.32 in8.1 mm
08:00 AM 63.5°F17.5°C 55.1°F12.8°C 74% Calm Calm -- 26.62 in901.5 mb - 0.00 in0.0 mm 0.32 in8.1 mm
08:10 AM 69.0°F20.6°C 56.3°F13.5°C 64% Calm Calm -- 26.61 in901.1 mb - 0.00 in0.0 mm 0.32 in8.1 mm
08:15 AM 70.0°F21.1°C 55.9°F13.3°C 61% Calm Calm -- 26.61 in901.1 mb - 0.00 in0.0 mm 0.32 in8.1 mm
08:20 AM 70.0°F21.1°C 58.1°F14.5°C 66% Calm Calm -- 26.60 in900.8 mb - 0.00 in0.0 mm 0.32 in8.1 mm
08:25 AM 69.0°F20.6°C 55.4°F13.0°C 62% Calm Calm -- 26.61 in901.1 mb - 0.00 in0.0 mm 0.32 in8.1 mm
08:30 AM 68.0°F20.0°C 53.6°F12.0°C 60% Calm Calm -- 26.60 in900.8 mb - 0.00 in0.0 mm 0.32 in8.1 mm
08:35 AM 67.0°F19.4°C 54.0°F12.2°C 63% Calm Calm -- 26.60 in900.8 mb - 0.00 in0.0 mm 0.32 in8.1 mm
08:40 AM 66.0°F18.9°C 54.7°F12.6°C 67% Calm Calm -- 26.61 in901.1 mb - 0.00 in0.0 mm 0.32 in8.1 mm
08:45 AM 66.0°F18.9°C 55.1°F12.8°C 68% Calm Calm -- 26.61 in901.1 mb - 0.00 in0.0 mm 0.32 in8.1 mm
08:50 AM 66.0°F18.9°C 55.5°F13.1°C 69% Calm Calm -- 26.61 in901.1 mb - 0.00 in0.0 mm 0.32 in8.1 mm
08:55 AM 66.0°F18.9°C 53.9°F12.2°C 65% Calm Calm -- 26.61 in901.1 mb - 0.00 in0.0 mm 0.32 in8.1 mm
09:00 AM 66.0°F18.9°C 46.3°F7.9°C 49% Calm Calm -- 26.60 in900.8 mb - 0.00 in0.0 mm 0.32 in8.1 mm
09:10 AM 66.0°F18.9°C 49.8°F9.9°C 56% 1.2 mph WSW1.9 kmh WSW 1.2 mph1.9 kmh 26.61 in901.1 mb - 0.00 in0.0 mm 0.32 in8.1 mm
09:15 AM 66.0°F18.9°C 49.4°F9.7°C 55% Calm Calm -- 26.60 in900.8 mb - 0.00 in0.0 mm 0.32 in8.1 mm
09:20 AM 67.0°F19.4°C 53.5°F11.9°C 62% Calm Calm -- 26.60 in900.8 mb - 0.00 in0.0 mm 0.32 in8.1 mm
09:25 AM 68.0°F20.0°C 52.7°F11.5°C 58% Calm Calm -- 26.60 in900.8 mb - 0.00 in0.0 mm 0.32 in8.1 mm
09:30 AM 68.0°F20.0°C 51.7°F10.9°C 56% Calm Calm -- 26.60 in900.8 mb - 0.00 in0.0 mm 0.32 in8.1 mm
09:35 AM 68.0°F20.0°C 52.2°F11.2°C 57% Calm Calm -- 26.60 in900.8 mb - 0.00 in0.0 mm 0.32 in8.1 mm
09:40 AM 68.0°F20.0°C 52.7°F11.5°C 58% Calm Calm -- 26.60 in900.8 mb - 0.00 in0.0 mm 0.32 in8.1 mm
09:45 AM 68.0°F20.0°C 51.2°F10.7°C 55% Calm Calm -- 26.61 in901.1 mb - 0.00 in0.0 mm 0.32 in8.1 mm
09:50 AM 68.0°F20.0°C 52.7°F11.5°C 58% Calm Calm -- 26.60 in900.8 mb - 0.00 in0.0 mm 0.32 in8.1 mm
09:55 AM 69.0°F20.6°C 52.2°F11.2°C 55% Calm Calm -- 26.61 in901.1 mb - 0.00 in0.0 mm 0.32 in8.1 mm
10:00 AM 69.0°F20.6°C 52.2°F11.2°C 55% Calm Calm -- 26.60 in900.8 mb - 0.00 in0.0 mm 0.32 in8.1 mm
10:10 AM 69.0°F20.6°C 52.2°F11.2°C 55% Calm Calm 1.2 mph1.9 kmh 26.60 in900.8 mb - 0.00 in0.0 mm 0.32 in8.1 mm
10:15 AM 68.0°F20.0°C 52.7°F11.5°C 58% Calm Calm -- 26.60 in900.8 mb - 0.00 in0.0 mm 0.32 in8.1 mm
10:20 AM 68.0°F20.0°C 53.1°F11.7°C 59% Calm Calm -- 26.61 in901.1 mb - 0.00 in0.0 mm 0.32 in8.1 mm
10:25 AM 67.9°F19.9°C 53.0°F11.7°C 59% Calm Calm -- 26.61 in901.1 mb - 0.00 in0.0 mm 0.32 in8.1 mm
10:30 AM 67.0°F19.4°C 52.2°F11.2°C 59% Calm Calm -- 26.60 in900.8 mb - 0.00 in0.0 mm 0.32 in8.1 mm
10:35 AM 67.0°F19.4°C 52.2°F11.2°C 59% Calm Calm -- 26.61 in901.1 mb - 0.00 in0.0 mm 0.32 in8.1 mm
10:40 AM 67.0°F19.4°C 53.1°F11.7°C 61% Calm Calm 1.2 mph1.9 kmh 26.61 in901.1 mb - 0.00 in0.0 mm 0.32 in8.1 mm
10:45 AM 66.0°F18.9°C 53.0°F11.7°C 63% Calm Calm -- 26.62 in901.5 mb - 0.00 in0.0 mm 0.32 in8.1 mm
10:50 AM 66.0°F18.9°C 53.9°F12.2°C 65% Calm Calm -- 26.61 in901.1 mb - 0.00 in0.0 mm 0.32 in8.1 mm
10:55 AM 67.0°F19.4°C 56.9°F13.8°C 70% Calm Calm -- 26.60 in900.8 mb - 0.00 in0.0 mm 0.32 in8.1 mm
11:00 AM 66.0°F18.9°C 53.0°F11.7°C 63% Calm Calm -- 26.61 in901.1 mb - 0.00 in0.0 mm 0.32 in8.1 mm
11:10 AM 65.6°F18.7°C 53.5°F11.9°C 65% Calm Calm 1.2 mph1.9 kmh 26.61 in901.1 mb - 0.00 in0.0 mm 0.32 in8.1 mm
11:15 AM 65.0°F18.3°C 52.5°F11.4°C 64% Calm Calm 1.2 mph1.9 kmh 26.61 in901.1 mb - 0.00 in0.0 mm 0.32 in8.1 mm
11:20 AM 65.0°F18.3°C 52.5°F11.4°C 64% Calm Calm -- 26.62 in901.5 mb - 0.00 in0.0 mm 0.32 in8.1 mm
11:25 AM 64.0°F17.8°C 54.8°F12.7°C 72% Calm Calm -- 26.62 in901.5 mb - 0.00 in0.0 mm 0.32 in8.1 mm
11:30 AM 67.0°F19.4°C 54.0°F12.2°C 63% Calm Calm -- 26.60 in900.8 mb - 0.00 in0.0 mm 0.32 in8.1 mm
11:35 AM 64.0°F17.8°C 54.4°F12.4°C 71% Calm Calm -- 26.62 in901.5 mb - 0.00 in0.0 mm 0.32 in8.1 mm
11:40 AM 64.0°F17.8°C 56.6°F13.7°C 77% Calm Calm -- 26.63 in901.8 mb - 0.00 in0.0 mm 0.32 in8.1 mm
11:45 AM 63.0°F17.2°C 57.1°F13.9°C 81% Calm Calm -- 26.63 in901.8 mb - 0.01 in0.3 mm 0.33 in8.4 mm
11:50 AM 62.0°F16.7°C 56.8°F13.8°C 83% Calm Calm -- 26.63 in901.8 mb - 0.01 in0.3 mm 0.33 in8.4 mm
11:55 AM 62.0°F16.7°C 56.1°F13.4°C 81% Calm Calm -- 26.63 in901.8 mb - 0.01 in0.3 mm 0.33 in8.4 mm
12:00 PM 62.2°F16.8°C 55.6°F13.1°C 79% Calm Calm -- 26.63 in901.8 mb - 0.01 in0.3 mm 0.33 in8.4 mm
12:10 PM 63.0°F17.2°C 54.2°F12.3°C 73% Calm Calm -- 26.65 in902.5 mb - 0.01 in0.3 mm 0.33 in8.4 mm
12:15 PM 63.0°F17.2°C 54.9°F12.7°C 75% Calm Calm -- 26.64 in902.1 mb - 0.01 in0.3 mm 0.33 in8.4 mm
12:20 PM 64.0°F17.8°C 54.8°F12.7°C 72% Calm Calm -- 26.63 in901.8 mb - 0.01 in0.3 mm 0.33 in8.4 mm
12:25 PM 65.0°F18.3°C 55.4°F13.0°C 71% Calm Calm -- 26.63 in901.8 mb - 0.01 in0.3 mm 0.33 in8.4 mm
12:30 PM 67.0°F19.4°C 55.7°F13.2°C 67% Calm Calm -- 26.63 in901.8 mb - 0.01 in0.3 mm 0.33 in8.4 mm
12:35 PM 68.0°F20.0°C 55.8°F13.2°C 65% Calm Calm -- 26.62 in901.5 mb - 0.01 in0.3 mm 0.33 in8.4 mm
12:40 PM 70.9°F21.6°C 54.4°F12.4°C 56% 1.2 mph SSW1.9 kmh SSW 1.2 mph1.9 kmh 26.62 in901.5 mb - 0.01 in0.3 mm 0.33 in8.4 mm
12:45 PM 71.9°F22.2°C 55.3°F12.9°C 56% Calm Calm 1.2 mph1.9 kmh 26.62 in901.5 mb - 0.00 in0.0 mm 0.33 in8.4 mm
12:50 PM 73.0°F22.8°C 56.4°F13.6°C 56% Calm Calm -- 26.63 in901.8 mb - 0.00 in0.0 mm 0.33 in8.4 mm
12:55 PM 74.0°F23.3°C 56.8°F13.8°C 55% Calm Calm -- 26.62 in901.5 mb - 0.00 in0.0 mm 0.33 in8.4 mm
01:00 PM 72.0°F22.2°C 55.4°F13.0°C 56% Calm Calm 1.2 mph1.9 kmh 26.63 in901.8 mb - 0.00 in0.0 mm 0.33 in8.4 mm
01:10 PM 70.0°F21.1°C 55.5°F13.1°C 60% Calm Calm -- 26.62 in901.5 mb - 0.00 in0.0 mm 0.33 in8.4 mm
01:15 PM 69.0°F20.6°C 55.0°F12.8°C 61% Calm Calm -- 26.62 in901.5 mb - 0.00 in0.0 mm 0.33 in8.4 mm
01:20 PM 68.0°F20.0°C 54.9°F12.7°C 63% Calm Calm -- 26.62 in901.5 mb - 0.00 in0.0 mm 0.33 in8.4 mm
01:25 PM 68.0°F20.0°C 54.9°F12.7°C 63% Calm Calm -- 26.62 in901.5 mb - 0.00 in0.0 mm 0.33 in8.4 mm
01:30 PM 68.0°F20.0°C 55.4°F13.0°C 64% Calm Calm -- 26.62 in901.5 mb - 0.00 in0.0 mm 0.33 in8.4 mm
01:35 PM 67.8°F19.9°C 55.2°F12.9°C 64% Calm Calm 1.2 mph1.9 kmh 26.62 in901.5 mb - 0.00 in0.0 mm 0.33 in8.4 mm
01:40 PM 67.0°F19.4°C 53.1°F11.7°C 61% Calm Calm 1.2 mph1.9 kmh 26.61 in901.1 mb - 0.00 in0.0 mm 0.33 in8.4 mm
01:45 PM 68.0°F20.0°C 58.2°F14.6°C 71% Calm Calm -- 26.61 in901.1 mb - 0.01 in0.3 mm 0.34 in8.6 mm
01:50 PM 68.0°F20.0°C 58.2°F14.6°C 71% Calm Calm -- 26.62 in901.5 mb - 0.01 in0.3 mm 0.34 in8.6 mm
01:55 PM 70.0°F21.1°C 56.8°F13.8°C 63% Calm Calm -- 26.62 in901.5 mb - 0.01 in0.3 mm 0.34 in8.6 mm
02:00 PM 71.0°F21.7°C 57.3°F14.1°C 62% Calm Calm -- 26.62 in901.5 mb - 0.01 in0.3 mm 0.34 in8.6 mm
02:10 PM 71.0°F21.7°C 56.9°F13.8°C 61% 1.2 mph W1.9 kmh W 1.2 mph1.9 kmh 26.61 in901.1 mb - 0.01 in0.3 mm 0.34 in8.6 mm
02:15 PM 70.0°F21.1°C 57.3°F14.1°C 64% Calm Calm 1.2 mph1.9 kmh 26.61 in901.1 mb - 0.01 in0.3 mm 0.34 in8.6 mm
02:20 PM 70.5°F21.4°C 56.4°F13.6°C 61% Calm Calm 1.2 mph1.9 kmh 26.61 in901.1 mb - 0.01 in0.3 mm 0.34 in8.6 mm
02:25 PM 71.1°F21.7°C 55.5°F13.1°C 58% Calm Calm -- 26.61 in901.1 mb - 0.01 in0.3 mm 0.34 in8.6 mm
02:30 PM 75.0°F23.9°C 56.7°F13.7°C 53% Calm Calm -- 26.61 in901.1 mb - 0.01 in0.3 mm 0.34 in8.6 mm
02:35 PM 73.0°F22.8°C 55.4°F13.0°C 54% Calm Calm -- 26.61 in901.1 mb - 0.01 in0.3 mm 0.34 in8.6 mm
02:40 PM 72.0°F22.2°C 57.4°F14.1°C 60% Calm Calm -- 26.61 in901.1 mb - 0.01 in0.3 mm 0.34 in8.6 mm
02:45 PM 71.0°F21.7°C 55.5°F13.1°C 58% Calm Calm -- 26.61 in901.1 mb - 0.00 in0.0 mm 0.34 in8.6 mm
02:50 PM 74.0°F23.3°C 56.3°F13.5°C 54% Calm Calm -- 26.61 in901.1 mb - 0.00 in0.0 mm 0.34 in8.6 mm
02:55 PM 75.0°F23.9°C 56.2°F13.4°C 52% Calm Calm -- 26.60 in900.8 mb - 0.00 in0.0 mm 0.34 in8.6 mm
03:00 PM 74.0°F23.3°C 56.8°F13.8°C 55% Calm Calm -- 26.60 in900.8 mb - 0.00 in0.0 mm 0.34 in8.6 mm
03:10 PM 72.7°F22.6°C 56.1°F13.4°C 56% Calm Calm -- 26.60 in900.8 mb - 0.00 in0.0 mm 0.34 in8.6 mm
03:15 PM 72.0°F22.2°C 56.4°F13.6°C 58% Calm Calm -- 26.60 in900.8 mb - 0.00 in0.0 mm 0.34 in8.6 mm
03:20 PM 71.0°F21.7°C 55.5°F13.1°C 58% Calm Calm -- 26.60 in900.8 mb - 0.00 in0.0 mm 0.34 in8.6 mm
03:25 PM 71.0°F21.7°C 55.9°F13.3°C 59% Calm Calm -- 26.60 in900.8 mb - 0.00 in0.0 mm 0.34 in8.6 mm
03:30 PM 71.0°F21.7°C 55.0°F12.8°C 57% Calm Calm -- 26.60 in900.8 mb - 0.00 in0.0 mm 0.34 in8.6 mm
03:35 PM 71.0°F21.7°C 56.4°F13.6°C 60% Calm Calm -- 26.60 in900.8 mb - 0.00 in0.0 mm 0.34 in8.6 mm
03:40 PM 72.0°F22.2°C 57.8°F14.3°C 61% Calm Calm -- 26.59 in900.4 mb - 0.00 in0.0 mm 0.34 in8.6 mm
03:45 PM 72.0°F22.2°C 56.4°F13.6°C 58% Calm Calm -- 26.59 in900.4 mb - 0.00 in0.0 mm 0.34 in8.6 mm
03:50 PM 71.0°F21.7°C 55.5°F13.1°C 58% Calm Calm -- 26.59 in900.4 mb - 0.00 in0.0 mm 0.34 in8.6 mm
03:55 PM 71.0°F21.7°C 55.5°F13.1°C 58% Calm Calm -- 26.59 in900.4 mb - 0.00 in0.0 mm 0.34 in8.6 mm
04:00 PM 70.8°F21.6°C 55.3°F12.9°C 58% Calm Calm -- 26.59 in900.4 mb - 0.00 in0.0 mm 0.34 in8.6 mm
04:10 PM 70.0°F21.1°C 54.5°F12.5°C 58% Calm Calm -- 26.58 in900.1 mb - 0.00 in0.0 mm 0.34 in8.6 mm
04:15 PM 71.0°F21.7°C 57.3°F14.1°C 62% Calm Calm -- 26.58 in900.1 mb - 0.00 in0.0 mm 0.34 in8.6 mm
04:20 PM 71.0°F21.7°C 56.4°F13.6°C 60% Calm Calm -- 26.59 in900.4 mb - 0.00 in0.0 mm 0.34 in8.6 mm
04:25 PM 72.0°F22.2°C 56.4°F13.6°C 58% Calm Calm -- 26.58 in900.1 mb - 0.00 in0.0 mm 0.34 in8.6 mm
04:30 PM 71.0°F21.7°C 56.4°F13.6°C 60% Calm Calm -- 26.59 in900.4 mb - 0.00 in0.0 mm 0.34 in8.6 mm
04:35 PM 71.0°F21.7°C 55.0°F12.8°C 57% Calm Calm -- 26.59 in900.4 mb - 0.00 in0.0 mm 0.34 in8.6 mm
04:40 PM 71.0°F21.7°C 56.4°F13.6°C 60% Calm Calm -- 26.58 in900.1 mb - 0.00 in0.0 mm 0.34 in8.6 mm
04:45 PM 70.5°F21.4°C 57.8°F14.3°C 64% Calm Calm 1.2 mph1.9 kmh 26.59 in900.4 mb - 0.00 in0.0 mm 0.34 in8.6 mm
04:50 PM 70.0°F21.1°C 59.0°F15.0°C 68% Calm Calm 1.2 mph1.9 kmh 26.59 in900.4 mb - 0.00 in0.0 mm 0.34 in8.6 mm
04:55 PM 69.0°F20.6°C 57.2°F14.0°C 66% Calm Calm -- 26.60 in900.8 mb - 0.00 in0.0 mm 0.34 in8.6 mm
05:00 PM 68.0°F20.0°C 57.0°F13.9°C 68% Calm Calm -- 26.59 in900.4 mb - 0.00 in0.0 mm 0.34 in8.6 mm
05:10 PM 68.0°F20.0°C 56.6°F13.7°C 67% Calm Calm -- 26.59 in900.4 mb - 0.00 in0.0 mm 0.34 in8.6 mm
05:15 PM 68.0°F20.0°C 57.0°F13.9°C 68% Calm Calm -- 26.59 in900.4 mb - 0.00 in0.0 mm 0.34 in8.6 mm
05:20 PM 68.0°F20.0°C 57.0°F13.9°C 68% Calm Calm -- 26.59 in900.4 mb - 0.00 in0.0 mm 0.34 in8.6 mm
05:25 PM 68.0°F20.0°C 56.2°F13.4°C 66% Calm Calm -- 26.59 in900.4 mb - 0.00 in0.0 mm 0.34 in8.6 mm
05:30 PM 67.2°F19.6°C 55.9°F13.3°C 67% Calm Calm 1.2 mph1.9 kmh 26.60 in900.8 mb - 0.00 in0.0 mm 0.34 in8.6 mm
05:35 PM 67.0°F19.4°C 55.7°F13.2°C 67% Calm Calm 1.2 mph1.9 kmh 26.60 in900.8 mb - 0.00 in0.0 mm 0.34 in8.6 mm
05:40 PM 67.0°F19.4°C 55.7°F13.2°C 67% Calm Calm 1.2 mph1.9 kmh 26.60 in900.8 mb - 0.00 in0.0 mm 0.34 in8.6 mm
05:45 PM 67.0°F19.4°C 55.7°F13.2°C 67% Calm Calm 1.2 mph1.9 kmh 26.60 in900.8 mb - 0.00 in0.0 mm 0.34 in8.6 mm
05:50 PM 67.0°F19.4°C 57.7°F14.3°C 72% Calm Calm -- 26.60 in900.8 mb - 0.00 in0.0 mm 0.34 in8.6 mm
05:55 PM 66.0°F18.9°C 58.2°F14.6°C 76% Calm Calm -- 26.60 in900.8 mb - 0.00 in0.0 mm 0.34 in8.6 mm
06:00 PM 65.0°F18.3°C 57.6°F14.2°C 77% Calm Calm 1.2 mph1.9 kmh 26.61 in901.1 mb - 0.00 in0.0 mm 0.34 in8.6 mm
06:10 PM 65.0°F18.3°C 57.6°F14.2°C 77% Calm Calm 1.2 mph1.9 kmh 26.61 in901.1 mb - 0.00 in0.0 mm 0.34 in8.6 mm
06:15 PM 65.0°F18.3°C 59.4°F15.2°C 82% Calm Calm 1.2 mph1.9 kmh 26.62 in901.5 mb - 0.00 in0.0 mm 0.34 in8.6 mm
06:20 PM 64.6°F18.1°C 59.0°F15.0°C 82% Calm Calm 1.2 mph1.9 kmh 26.62 in901.5 mb - 0.00 in0.0 mm 0.34 in8.6 mm
06:25 PM 64.0°F17.8°C 58.4°F14.7°C 82% Calm Calm 1.2 mph1.9 kmh 26.62 in901.5 mb - 0.00 in0.0 mm 0.34 in8.6 mm
06:30 PM 64.0°F17.8°C 59.1°F15.1°C 84% Calm Calm -- 26.62 in901.5 mb - 0.01 in0.3 mm 0.35 in8.9 mm
06:35 PM 62.0°F16.7°C 59.3°F15.2°C 91% Calm Calm -- 26.62 in901.5 mb - 0.01 in0.3 mm 0.35 in8.9 mm
06:40 PM 70.0°F21.1°C 58.1°F14.5°C 66% Calm Calm -- 26.60 in900.8 mb - 0.01 in0.3 mm 0.35 in8.9 mm
06:45 PM 61.0°F16.1°C 59.0°F15.0°C 93% Calm Calm -- 26.63 in901.8 mb - 0.04 in1.0 mm 0.38 in9.7 mm
06:50 PM 61.0°F16.1°C 58.4°F14.7°C 91% Calm Calm -- 26.63 in901.8 mb - 0.04 in1.0 mm 0.38 in9.7 mm
06:55 PM 61.0°F16.1°C 58.7°F14.8°C 92% Calm Calm -- 26.63 in901.8 mb - 0.04 in1.0 mm 0.38 in9.7 mm
07:00 PM 61.0°F16.1°C 59.3°F15.2°C 94% Calm Calm -- 26.63 in901.8 mb - 0.04 in1.0 mm 0.38 in9.7 mm
07:10 PM 61.0°F16.1°C 59.3°F15.2°C 94% Calm Calm -- 26.62 in901.5 mb - 0.04 in1.0 mm 0.38 in9.7 mm
07:15 PM 61.0°F16.1°C 59.3°F15.2°C 94% Calm Calm -- 26.63 in901.8 mb - 0.04 in1.0 mm 0.38 in9.7 mm
07:20 PM 60.0°F15.6°C 58.3°F14.6°C 94% Calm Calm -- 26.64 in902.1 mb - 0.04 in1.0 mm 0.38 in9.7 mm
07:25 PM 60.0°F15.6°C 58.3°F14.6°C 94% Calm Calm -- 26.63 in901.8 mb - 0.04 in1.0 mm 0.38 in9.7 mm
07:30 PM 60.0°F15.6°C 58.3°F14.6°C 94% Calm Calm -- 26.63 in901.8 mb - 0.03 in0.8 mm 0.38 in9.7 mm
07:35 PM 60.0°F15.6°C 58.3°F14.6°C 94% Calm Calm -- 26.64 in902.1 mb - 0.03 in0.8 mm 0.38 in9.7 mm
07:40 PM 60.0°F15.6°C 58.0°F14.4°C 93% Calm Calm -- 26.63 in901.8 mb - 0.03 in0.8 mm 0.38 in9.7 mm
07:45 PM 59.0°F15.0°C 57.3°F14.1°C 94% Calm Calm -- 26.63 in901.8 mb - 0.00 in0.0 mm 0.38 in9.7 mm
07:50 PM 59.0°F15.0°C 57.3°F14.1°C 94% Calm Calm -- 26.63 in901.8 mb - 0.00 in0.0 mm 0.38 in9.7 mm
07:55 PM 59.0°F15.0°C 57.3°F14.1°C 94% Calm Calm -- 26.63 in901.8 mb - 0.00 in0.0 mm 0.38 in9.7 mm
08:00 PM 59.0°F15.0°C 57.3°F14.1°C 94% Calm Calm -- 26.63 in901.8 mb - 0.00 in0.0 mm 0.38 in9.7 mm
08:10 PM 59.0°F15.0°C 57.3°F14.1°C 94% Calm Calm -- 26.63 in901.8 mb - 0.00 in0.0 mm 0.38 in9.7 mm
08:15 PM 58.0°F14.4°C 56.3°F13.5°C 94% Calm Calm -- 26.64 in902.1 mb - 0.00 in0.0 mm 0.38 in9.7 mm
08:20 PM 58.0°F14.4°C 56.0°F13.3°C 93% Calm Calm -- 26.63 in901.8 mb - 0.00 in0.0 mm 0.38 in9.7 mm
08:25 PM 58.0°F14.4°C 56.3°F13.5°C 94% Calm Calm -- 26.64 in902.1 mb - 0.00 in0.0 mm 0.38 in9.7 mm
08:30 PM 58.0°F14.4°C 56.3°F13.5°C 94% Calm Calm -- 26.64 in902.1 mb - 0.00 in0.0 mm 0.38 in9.7 mm
08:35 PM 58.0°F14.4°C 56.3°F13.5°C 94% Calm Calm -- 26.63 in901.8 mb - 0.00 in0.0 mm 0.38 in9.7 mm
08:40 PM 57.1°F13.9°C 55.7°F13.2°C 95% Calm Calm -- 26.65 in902.5 mb - 0.00 in0.0 mm 0.38 in9.7 mm
08:45 PM 57.4°F14.1°C 56.0°F13.3°C 95% Calm Calm -- 26.65 in902.5 mb - 0.00 in0.0 mm 0.38 in9.7 mm
08:50 PM 58.0°F14.4°C 56.3°F13.5°C 94% Calm Calm -- 26.65 in902.5 mb - 0.00 in0.0 mm 0.38 in9.7 mm
08:55 PM 58.0°F14.4°C 56.0°F13.3°C 93% Calm Calm -- 26.65 in902.5 mb - 0.00 in0.0 mm 0.38 in9.7 mm
09:00 PM 58.0°F14.4°C 56.3°F13.5°C 94% Calm Calm -- 26.65 in902.5 mb - 0.00 in0.0 mm 0.38 in9.7 mm
09:10 PM 58.0°F14.4°C 56.3°F13.5°C 94% Calm Calm -- 26.65 in902.5 mb - 0.00 in0.0 mm 0.38 in9.7 mm
09:15 PM 58.0°F14.4°C 56.3°F13.5°C 94% Calm Calm -- 26.65 in902.5 mb - 0.00 in0.0 mm 0.38 in9.7 mm
09:20 PM 58.0°F14.4°C 56.3°F13.5°C 94% Calm Calm -- 26.65 in902.5 mb - 0.00 in0.0 mm 0.38 in9.7 mm
09:25 PM 58.0°F14.4°C 56.3°F13.5°C 94% Calm Calm -- 26.65 in902.5 mb - 0.00 in0.0 mm 0.38 in9.7 mm
09:30 PM 58.0°F14.4°C 56.3°F13.5°C 94% Calm Calm -- 26.65 in902.5 mb - 0.00 in0.0 mm 0.38 in9.7 mm
09:35 PM 57.8°F14.3°C 56.1°F13.4°C 94% Calm Calm -- 26.65 in902.5 mb - 0.00 in0.0 mm 0.38 in9.7 mm
09:40 PM 57.0°F13.9°C 55.0°F12.8°C 93% Calm Calm -- 26.64 in902.1 mb - 0.00 in0.0 mm 0.38 in9.7 mm
09:45 PM 57.0°F13.9°C 54.7°F12.6°C 92% Calm Calm -- 26.65 in902.5 mb - 0.00 in0.0 mm 0.38 in9.7 mm
09:50 PM 57.0°F13.9°C 55.0°F12.8°C 93% Calm Calm -- 26.65 in902.5 mb - 0.00 in0.0 mm 0.38 in9.7 mm
09:55 PM 57.0°F13.9°C 55.3°F12.9°C 94% Calm Calm -- 26.65 in902.5 mb - 0.00 in0.0 mm 0.38 in9.7 mm
10:00 PM 57.0°F13.9°C 55.3°F12.9°C 94% Calm Calm -- 26.65 in902.5 mb - 0.00 in0.0 mm 0.38 in9.7 mm
10:10 PM 57.0°F13.9°C 55.0°F12.8°C 93% Calm Calm -- 26.65 in902.5 mb - 0.00 in0.0 mm 0.38 in9.7 mm
10:15 PM 57.0°F13.9°C 55.0°F12.8°C 93% Calm Calm -- 26.64 in902.1 mb - 0.00 in0.0 mm 0.38 in9.7 mm
10:20 PM 57.0°F13.9°C 55.0°F12.8°C 93% Calm Calm -- 26.64 in902.1 mb - 0.00 in0.0 mm 0.38 in9.7 mm
10:25 PM 57.0°F13.9°C 55.0°F12.8°C 93% Calm Calm -- 26.65 in902.5 mb - 0.00 in0.0 mm 0.38 in9.7 mm
10:30 PM 57.0°F13.9°C 55.3°F12.9°C 94% Calm Calm -- 26.65 in902.5 mb - 0.00 in0.0 mm 0.38 in9.7 mm
10:35 PM 57.0°F13.9°C 55.3°F12.9°C 94% Calm Calm -- 26.65 in902.5 mb - 0.00 in0.0 mm 0.38 in9.7 mm
10:40 PM 57.0°F13.9°C 55.0°F12.8°C 93% Calm Calm -- 26.65 in902.5 mb - 0.00 in0.0 mm 0.38 in9.7 mm
10:45 PM 57.0°F13.9°C 55.0°F12.8°C 93% Calm Calm -- 26.65 in902.5 mb - 0.00 in0.0 mm 0.38 in9.7 mm
10:50 PM 57.0°F13.9°C 55.3°F12.9°C 94% Calm Calm -- 26.65 in902.5 mb - 0.00 in0.0 mm 0.38 in9.7 mm
10:55 PM 57.0°F13.9°C 55.3°F12.9°C 94% Calm Calm -- 26.65 in902.5 mb - 0.00 in0.0 mm 0.38 in9.7 mm
11:00 PM 57.0°F13.9°C 54.7°F12.6°C 92% Calm Calm -- 26.64 in902.1 mb - 0.00 in0.0 mm 4.18 in106.2 mm
11:10 PM 57.0°F13.9°C 54.7°F12.6°C 92% Calm Calm -- 26.65 in902.5 mb - 0.00 in0.0 mm 4.18 in106.2 mm
11:15 PM 57.0°F13.9°C 54.7°F12.6°C 92% Calm Calm -- 26.65 in902.5 mb - 0.00 in0.0 mm 4.18 in106.2 mm
11:20 PM 57.0°F13.9°C 54.7°F12.6°C 92% Calm Calm -- 26.64 in902.1 mb - 0.00 in0.0 mm 4.18 in106.2 mm
11:25 PM 57.0°F13.9°C 54.7°F12.6°C 92% Calm Calm -- 26.65 in902.5 mb - 0.00 in0.0 mm 4.18 in106.2 mm
11:30 PM 57.0°F13.9°C 55.0°F12.8°C 93% Calm Calm -- 26.65 in902.5 mb - 0.00 in0.0 mm 4.18 in106.2 mm
11:35 PM 57.0°F13.9°C 54.7°F12.6°C 92% Calm Calm -- 26.64 in902.1 mb - 0.00 in0.0 mm 4.18 in106.2 mm
11:40 PM 57.0°F13.9°C 54.7°F12.6°C 92% Calm Calm -- 26.64 in902.1 mb - 0.00 in0.0 mm 4.18 in106.2 mm
11:45 PM 57.0°F13.9°C 54.4°F12.4°C 91% Calm Calm -- 26.64 in902.1 mb - 0.00 in0.0 mm 4.18 in106.2 mm
11:50 PM 57.0°F13.9°C 55.0°F12.8°C 93% Calm Calm -- 26.65 in902.5 mb - 0.00 in0.0 mm 4.18 in106.2 mm
11:55 PM 57.0°F13.9°C 54.7°F12.6°C 92% Calm Calm -- 26.65 in902.5 mb - 0.00 in0.0 mm 4.18 in106.2 mm